Terminal Aerodrome Forecast
Issued by NWS Pittsburgh, PA

Current Version | Previous Version | Graphics & Text | Print | Product List | Glossary On
Versions: 1 2 3 4 5 6 7 8 9 10 11 12 13 14 15 16 17 18 19 20 21 22 23 24 25 26 27 28 29 30 31 32
405
FTUS41 KPBZ 222103 AAC
TAFPIT
TAF AMD
KPIT 222103Z 2221/2324 36008KT P6SM BKN040
      TEMPO 2221/2222 4SM -SHRA BKN025
     FM230000 35006KT P6SM SCT050=

USA.gov is the U.S. government's official web portal to all federal, state and local government web resources and services.